GW0114 Weather Reports


time (UTC)temp
C
wind
direction
speed
KPH
gust
KPH
rain 1hr
cm
rain 24hr
cm
rain mn
cm
humidity
%
barometer
mb
20260503190054 15 0 0.0 0.0 0.00 0.00 0.00 38 1017.2
20260503185549 15 0 0.0 0.0 0.00 0.00 0.00 40 1017.4
20260503185048 16 0 0.0 0.0 0.00 0.00 0.00 38 1017.3
20260503184612 16 0 0.0 0.0 0.00 0.00 0.00 39 1017.5
20260503184051 16 0 0.0 0.0 0.00 0.00 0.00 39 1017.4
20260503183554 16 0 0.0 0.0 0.00 0.00 0.00 35 1017.4
20260503183057 16 0 0.0 0.0 0.00 0.00 0.00 36 1017.5
20260503182548 17 0 0.0 0.0 0.00 0.00 0.00 39 1017.6
20260503182052 17 0 0.0 0.0 0.00 0.00 0.00 36 1017.7
20260503181559 17 0 0.0 0.0 0.00 0.00 0.00 34 1017.8
20260503181050 18 0 0.0 0.0 0.00 0.00 0.00 34 1017.9
20260503180552 18 0 0.0 0.0 0.00 0.00 0.00 40 1018.1
20260503180100 18 0 0.0 0.0 0.00 0.00 0.00 35 1018.2
20260503175549 18 0 0.0 0.0 0.00 0.00 0.00 38 1018.2
20260503175049 17 0 0.0 0.0 0.00 0.00 0.00 39 1018.1
20260503174556 17 0 0.0 0.0 0.00 0.00 0.00 34 1018.2
20260503174050 17 0 0.0 0.0 0.00 0.00 0.00 39 1018.2
20260503173549 17 0 0.0 0.0 0.00 0.00 0.00 39 1018.3
20260503173105 17 0 0.0 0.0 0.00 0.00 0.00 38 1018.3
20260503172550 17 0 0.0 0.0 0.00 0.00 0.00 35 1018.4
20260503172049 17 0 0.0 0.0 0.00 0.00 0.00 35 1018.5
20260503171557 17 0 0.0 0.0 0.00 0.00 0.00 38 1018.6
20260503171050 17 0 0.0 0.0 0.00 0.00 0.00 41 1018.6
20260503170549 17 0 0.0 0.0 0.00 0.00 0.00 38 1018.7
20260503170106 17 0 0.0 0.0 0.00 0.00 0.00 38 1018.8
20260503160106 15 0 0.0 0.0 0.00 0.00 0.00 45 1019.9
20260503150549 11 0 0.0 0.0 0.00 0.00 0.00 54 1019.9
20260503131050 3 0 0.0 0.0 0.00 0.00 0.00 85 1019.6
20260503130551 3 0 0.0 0.0 0.00 0.00 0.00 85 1019.4
20260503110550 3 0 0.0 0.0 0.00 0.00 0.00 81 1018.4
20260503081553 5 0 0.0 0.0 0.00 0.00 0.00 76 1016.7
20260503081048 5 0 0.0 0.0 0.00 0.00 0.00 75 1016.6
20260503080551 5 0 0.0 0.0 0.00 0.00 0.00 75 1016.7
20260503072549 5 0 0.0 0.0 0.00 0.00 0.00 74 1016.3
20260503072049 5 0 0.0 0.0 0.00 0.00 0.00 73 1016.3
20260503071608 5 0 0.0 0.0 0.00 0.00 0.00 74 1016.3
20260503071048 5 0 0.0 0.0 0.00 0.00 0.00 74 1016.2
20260503070545 5 0 0.0 0.0 0.00 0.00 0.00 73 1016.3
20260503055047 6 0 0.0 0.0 0.00 0.00 0.00 71 1016.2
20260503054608 6 0 0.0 0.0 0.00 0.00 0.00 70 1016.2
20260503054053 6 0 0.0 0.0 0.00 0.00 0.00 70 1016.2
20260503053547 6 0 0.0 0.0 0.00 0.00 0.00 70 1016.1
20260503053055 6 0 0.0 0.0 0.00 0.00 0.00 70 1016.2
20260503052549 6 0 0.0 0.0 0.00 0.00 0.00 70 1016.2
20260503052053 6 0 0.0 0.0 0.00 0.00 0.00 70 1016.2
20260503051556 6 0 0.0 0.0 0.00 0.00 0.00 69 1016.1
20260503051049 6 0 0.0 0.0 0.00 0.00 0.00 69 1016.0
20260503050549 6 0 0.0 0.0 0.00 0.00 0.00 69 1016.1
20260503050052 6 0 0.0 0.0 0.00 0.00 0.00 68 1016.1
20260503045549 6 0 0.0 0.0 0.00 0.00 0.00 68 1016.1
20260503045047 6 0 0.0 0.0 0.00 0.00 0.00 67 1016.1
20260503044552 6 0 0.0 0.0 0.00 0.00 0.00 67 1016.1
20260503044047 6 0 0.0 0.0 0.00 0.00 0.00 68 1016.1
20260503043545 6 0 0.0 0.0 0.00 0.00 0.00 67 1016.1
20260503043059 6 0 0.0 0.0 0.00 0.00 0.00 66 1016.1
20260503042547 6 0 0.0 0.0 0.00 0.00 0.00 66 1016.0
20260503042046 7 0 0.0 0.0 0.00 0.00 0.00 66 1016.0
20260503041555 7 0 0.0 0.0 0.00 0.00 0.00 66 1015.8
20260503041050 7 0 0.0 0.0 0.00 0.00 0.00 66 1015.6
20260503040545 7 0 0.0 0.0 0.00 0.00 0.00 65 1015.6
20260503040056 7 0 0.0 0.0 0.00 0.00 0.00 65 1015.5
20260503035545 7 0 0.0 0.0 0.00 0.00 0.00 64 1015.5
20260503035049 7 0 0.0 0.0 0.00 0.00 0.00 63 1015.5
20260503034552 7 0 0.0 0.0 0.00 0.00 0.00 63 1015.5
20260503034049 7 0 0.0 0.0 0.00 0.00 0.00 63 1015.4
20260503033545 7 0 0.0 0.0 0.00 0.00 0.00 62 1015.3
20260503033104 7 0 0.0 0.0 0.00 0.00 0.00 62 1015.3
20260503032547 7 0 0.0 0.0 0.00 0.00 0.00 62 1015.1
20260503032046 7 0 0.0 0.0 0.00 0.00 0.00 62 1015.3
20260503031558 8 0 0.0 0.0 0.00 0.00 0.00 62 1015.2
20260503031045 8 0 0.0 0.0 0.00 0.00 0.00 61 1015.2
20260503030547 8 0 0.0 0.0 0.00 0.00 0.00 60 1015.2
20260503030054 8 0 0.0 0.0 0.00 0.00 0.00 60 1015.1
20260503025547 8 0 0.0 0.0 0.00 0.00 0.00 59 1015.1
20260503025047 8 0 0.0 0.0 0.00 0.00 0.00 59 1015.0
20260503024557 8 0 0.0 0.0 0.00 0.00 0.00 59 1015.0
20260503024046 8 0 0.0 0.0 0.00 0.00 0.00 58 1014.9
20260503023545 8 0 0.0 0.0 0.00 0.00 0.00 58 1014.8
20260503023059 8 0 0.0 0.0 0.00 0.00 0.00 58 1014.8
20260503022545 9 0 0.0 0.0 0.00 0.00 0.00 56 1015.0
20260503022049 9 0 0.0 0.0 0.00 0.00 0.00 56 1014.9
20260503021558 9 0 0.0 0.0 0.00 0.00 0.00 55 1014.9
20260503021045 9 0 0.0 0.0 0.00 0.00 0.00 55 1014.8
20260503020548 9 0 0.0 0.0 0.00 0.00 0.00 55 1014.8
20260503020052 10 0 0.0 0.0 0.00 0.00 0.00 55 1014.7
20260503015549 10 0 0.0 0.0 0.00 0.00 0.00 54 1014.7
20260503015046 10 0 0.0 0.0 0.00 0.00 0.00 54 1014.6
20260503014601 10 0 0.0 0.0 0.00 0.00 0.00 53 1014.6
20260503014049 10 0 0.0 0.0 0.00 0.00 0.00 53 1014.4
20260503013546 10 0 0.0 0.0 0.00 0.00 0.00 53 1014.5
20260503013054 10 0 0.0 0.0 0.00 0.00 0.00 52 1014.4
20260503012547 10 0 0.0 0.0 0.00 0.00 0.00 53 1014.3
20260503012045 10 0 0.0 0.0 0.00 0.00 0.00 52 1014.2
20260503011553 10 0 0.0 3.2 0.00 0.00 0.00 52 1014.1
20260503011048 10 0 0.0 3.2 0.00 0.00 0.00 52 1014.1
20260503010548 11 0 0.0 0.0 0.00 0.00 0.00 52 1013.8
20260503010055 11 0 0.0 0.0 0.00 0.00 0.00 51 1013.9
20260503005548 11 0 0.0 0.0 0.00 0.00 0.00 50 1013.8
20260503005047 11 0 0.0 0.0 0.00 0.00 0.00 50 1013.7
20260503004552 11 0 0.0 0.0 0.00 0.00 0.00 50 1013.6
20260503004130 11 0 0.0 0.0 0.00 0.00 0.00 50 1013.6
20260503003549 11 0 0.0 0.0 0.00 0.00 0.00 50 1013.6
20260503003052 11 0 0.0 0.0 0.00 0.00 0.00 49 1013.6
20260503002549 11 0 0.0 0.0 0.00 0.00 0.00 48 1013.5
20260503002047 11 0 0.0 0.0 0.00 0.00 0.00 48 1013.5
20260503001551 11 0 0.0 0.0 0.00 0.00 0.00 47 1013.3
20260503001050 11 0 0.0 0.0 0.00 0.00 0.00 47 1013.2
20260503000546 12 0 0.0 0.0 0.00 0.00 0.00 47 1013.1
20260503000052 12 0 0.0 0.0 0.00 0.00 0.00 47 1013.1
20260502235553 12 0 0.0 0.0 0.00 0.00 0.00 47 1013.0
20260502235050 12 0 0.0 0.0 0.00 0.00 0.00 45 1012.9
20260502234555 12 0 0.0 0.0 0.00 0.00 0.00 46 1013.0
20260502234050 12 0 0.0 0.0 0.00 0.00 0.00 46 1012.9
20260502233550 12 0 0.0 4.8 0.00 0.00 0.00 45 1012.9
20260502233053 12 0 0.0 4.8 0.00 0.00 0.00 44 1012.9
20260502232551 13 0 0.0 4.8 0.00 0.00 0.00 43 1012.9
20260502232050 13 0 0.0 0.0 0.00 0.00 0.00 44 1012.7
20260502231604 13 0 0.0 0.0 0.00 0.00 0.00 44 1012.7
20260502231050 13 0 0.0 6.4 0.00 0.00 0.00 44 1012.7
20260502230550 13 0 0.0 6.4 0.00 0.00 0.00 44 1012.6
20260502230052 13 0 0.0 6.4 0.00 0.00 0.00 43 1012.5
20260502225549 13 0 0.0 6.4 0.00 0.00 0.00 44 1012.5
20260502225050 13 0 0.0 3.2 0.00 0.00 0.00 43 1012.6
20260502224556 13 0 0.0 4.8 0.00 0.00 0.00 45 1012.6
20260502224051 13 0 0.0 4.8 0.00 0.00 0.00 43 1012.5
20260502223551 13 0 0.0 4.8 0.00 0.00 0.00 42 1012.5
20260502223053 13 0 0.0 11.3 0.00 0.00 0.00 42 1012.5
20260502222551 13 0 0.0 11.3 0.00 0.00 0.00 41 1012.6
20260502222053 14 0 0.0 11.3 0.00 0.00 0.00 39 1012.5
20260502221555 14 0 0.0 9.7 0.00 0.00 0.00 42 1012.5
20260502221050 14 0 1.6 9.7 0.00 0.00 0.00 40 1012.5
20260502220550 14 0 0.0 0.0 0.00 0.00 0.00 41 1012.5
20260502220054 14 0 0.0 0.0 0.00 0.00 0.00 43 1012.4
20260502215549 14 0 0.0 0.0 0.00 0.00 0.00 44 1012.3
20260502215049 14 0 0.0 3.2 0.00 0.00 0.00 43 1012.3
20260502214558 14 0 0.0 11.3 0.00 0.00 0.00 43 1012.1
20260502214050 14 0 0.0 11.3 0.00 0.00 0.00 41 1012.1
20260502213552 14 0 0.0 11.3 0.00 0.00 0.00 43 1012.0
20260502213053 14 0 0.0 11.3 0.00 0.00 0.00 42 1011.9
20260502212551 14 0 0.0 11.3 0.00 0.00 0.00 44 1011.9
20260502212051 14 0 0.0 11.3 0.00 0.00 0.00 41 1011.8
20260502211554 14 0 0.0 0.0 0.00 0.00 0.00 43 1011.7
20260502211049 14 0 0.0 0.0 0.00 0.00 0.00 45 1011.8
20260502210550 13 0 0.0 6.4 0.00 0.00 0.00 42 1011.9
20260502210058 13 0 0.0 6.4 0.00 0.00 0.00 42 1011.8
20260502205550 13 0 0.0 6.4 0.00 0.00 0.00 40 1011.7
20260502205054 14 0 0.0 0.0 0.00 0.00 0.00 40 1011.9
20260502204556 14 0 0.0 0.0 0.00 0.00 0.00 40 1012.0
20260502204050 14 0 0.0 9.7 0.00 0.00 0.00 39 1011.8
20260502203549 14 0 0.0 9.7 0.00 0.00 0.00 38 1011.8
20260502203052 15 0 0.0 6.4 0.00 0.00 0.00 39 1011.9
20260502202552 15 0 0.0 6.4 0.00 0.00 0.00 40 1011.7
20260502202052 15 0 0.0 14.5 0.00 0.00 0.00 39 1011.9
20260502201549 15 0 0.0 14.5 0.00 0.00 0.00 38 1011.7
20260502201050 15 0 0.0 6.4 0.00 0.00 0.00 40 1011.8
20260502200550 15 0 0.0 9.7 0.00 0.00 0.00 41 1011.7
20260502200054 15 0 0.0 9.7 0.00 0.00 0.00 39 1011.7
20260502195550 15 0 0.0 0.0 0.00 0.00 0.00 41 1011.8
20260502195051 15 0 0.0 4.8 0.00 0.00 0.00 40 1011.9
20260502194557 15 0 0.0 4.8 0.00 0.00 0.00 38 1011.8
20260502194050 15 0 0.0 0.0 0.00 0.00 0.00 40 1011.9
20260502193550 15 0 0.0 0.0 0.00 0.00 0.00 42 1012.0
20260502193100 15 0 0.0 8.0 0.00 0.00 0.00 39 1011.9
20260502192550 15 0 0.0 8.0 0.00 0.00 0.00 42 1011.9
20260502192050 15 0 0.0 4.8 0.00 0.00 0.00 39 1011.9
20260502191600 15 0 0.0 4.8 0.00 0.00 0.00 41 1012.0
20260502191050 15 0 0.0 4.8 0.00 0.00 0.00 41 1012.0
20260502190553 15 0 0.0 1.6 0.00 0.00 0.00 41 1011.8